9WI6 weather

Kitty Hawk Estates Airport
Polar, Wisconsin, United States

Public forecast

Using degrees Fahrenheit for public forecast. Weather courtesy of forecast.io.

Closest aviation weather report (METAR) to Kitty Hawk Estates Airport

Closest report is Langlade County Airport, 5.0 nm (9.2 km) NW. Retrieved 2020/02/23 14:15 UTC (7 minutes ago):

KAIG 231415Z AUTO 26008KT 5SM BR OVC006 M02/M03 A2976 RMK AO2 T10241030

Closest aviation forecast (TAF) to Kitty Hawk Estates Airport

Closest forecast is Wausau Downtown Airport, 28.0 nm (51.9 km) WSW. Retrieved 2020/02/23 12:33 UTC (2 hours ago):

TAF KAUW 231130Z 2312/2412 22006KT P6SM SCT012 TEMPO 2312/2314 4SM BR FM231500 25008KT P6SM SCT250 FM231700 27011G18KT P6SM SCT250 WS016/29035KT FM240000 29009G15KT P6SM SCT250 FM240200 29006KT P6SM BKN250 FM241000 33005KT P6SM SCT012